Time;durP1;ratioP1;P1;durP2;ratioP2;P2;SDS_P1;SDS_P2;PMS_P1;PMS_P2;Temp;Humidity;BMP_temperature;BMP_pressure;BME280_temperature;BME280_humidity;BME280_pressure;Samples;Min_cycle;Max_cycle;Signal;HPM_P1;HPM_P2
2023/06/29 00:01:03;;;;;;;1999.90;999.90;;;21.70;99.90;;;;;;5091812;28;20419;-70
2023/06/29 00:03:32;;;;;;;1999.90;999.90;;;21.70;99.90;;;;;;5092092;28;20412;-70
2023/06/29 00:05:59;;;;;;;1999.90;999.90;;;21.60;99.90;;;;;;5091993;28;20781;-69
2023/06/29 00:08:26;;;;;;;1999.90;999.90;;;21.60;99.90;;;;;;5092087;28;20415;-68
2023/06/29 00:10:53;;;;;;;1999.90;999.90;;;21.70;99.90;;;;;;5091747;28;20437;-70
2023/06/29 00:13:19;;;;;;;1999.90;999.90;;;21.50;99.90;;;;;;5094231;28;20736;-69
2023/06/29 00:15:45;;;;;;;1999.90;999.90;;;21.50;99.90;;;;;;5096105;28;20424;-69
2023/06/29 00:18:12;;;;;;;1999.90;999.90;;;21.50;99.90;;;;;;5096436;28;20414;-69
2023/06/29 00:20:39;;;;;;;1999.90;999.90;;;21.40;99.90;;;;;;5096088;28;20453;-69
2023/06/29 00:23:05;;;;;;;1999.90;999.90;;;21.30;99.90;;;;;;5095809;28;20804;-70
2023/06/29 00:25:32;;;;;;;1999.90;999.90;;;21.30;99.90;;;;;;5096105;28;20431;-69
2023/06/29 00:27:57;;;;;;;1999.90;999.90;;;21.30;99.90;;;;;;5096055;28;20255;-68
2023/06/29 00:30:23;;;;;;;1999.90;999.90;;;21.30;99.90;;;;;;5095917;28;20412;-69
2023/06/29 00:32:49;;;;;;;1999.90;999.90;;;21.20;99.90;;;;;;5095733;28;20184;-69
2023/06/29 00:35:15;;;;;;;1999.90;999.90;;;21.20;99.90;;;;;;5095892;28;20189;-69
2023/06/29 00:37:42;;;;;;;1999.90;999.90;;;21.20;99.90;;;;;;5095928;28;20174;-69
2023/06/29 00:40:09;;;;;;;1999.90;999.90;;;21.20;99.90;;;;;;5095806;28;20174;-69
2023/06/29 00:42:35;;;;;;;1999.90;999.90;;;21.20;99.90;;;;;;5095530;28;20904;-69
2023/06/29 00:45:02;;;;;;;1999.90;999.90;;;21.10;99.90;;;;;;5095566;28;20410;-69
2023/06/29 00:47:28;;;;;;;1999.90;999.90;;;21.00;99.90;;;;;;5095830;28;20404;-68
2023/06/29 00:49:55;;;;;;;1999.90;999.90;;;21.00;99.90;;;;;;5095578;28;20445;-68
2023/06/29 00:52:21;;;;;;;1999.90;999.90;;;20.90;99.90;;;;;;5095225;28;20540;-70
2023/06/29 00:54:47;;;;;;;1999.90;999.90;;;20.90;99.90;;;;;;5095501;28;20400;-69
2023/06/29 00:57:13;;;;;;;1999.90;999.90;;;20.90;99.90;;;;;;5095484;28;20408;-69
2023/06/29 00:59:38;;;;;;;1999.90;999.90;;;20.90;99.90;;;;;;5095489;28;20408;-69
2023/06/29 01:02:04;;;;;;;1999.90;999.90;;;20.80;99.90;;;;;;5095217;28;20201;-68
2023/06/29 01:04:33;;;;;;;1999.90;999.90;;;20.80;99.90;;;;;;5095367;28;20196;-69
2023/06/29 01:07:21;;;;;;;1999.90;999.90;;;20.90;99.90;;;;;;5095313;28;20221;-68
2023/06/29 01:09:47;;;;;;;1999.90;999.90;;;20.80;99.90;;;;;;5095238;28;20400;-68
2023/06/29 01:12:15;;;;;;;1999.90;999.90;;;20.80;99.90;;;;;;5094829;28;20471;-69
2023/06/29 01:14:43;;;;;;;1999.90;999.90;;;20.80;99.90;;;;;;5095185;28;20406;-69
2023/06/29 01:17:12;;;;;;;1999.90;999.90;;;20.70;99.90;;;;;;5095119;28;20441;-70
2023/06/29 01:19:38;;;;;;;1999.90;999.90;;;20.70;99.90;;;;;;5094990;28;20411;-68
2023/06/29 01:22:29;;;;;;;1999.90;999.90;;;20.60;99.90;;;;;;5094679;28;20538;-69
2023/06/29 01:24:56;;;;;;;1999.90;999.90;;;20.60;99.90;;;;;;5094410;28;20417;-68
2023/06/29 01:27:21;;;;;;;1999.90;999.90;;;20.50;99.90;;;;;;5094882;28;20455;-70
2023/06/29 01:29:47;;;;;;;1999.90;999.90;;;20.50;99.90;;;;;;5094965;28;20407;-68
2023/06/29 01:32:14;;;;;;;1999.90;999.90;;;20.40;99.90;;;;;;5094547;28;20212;-68
2023/06/29 01:34:40;;;;;;;1999.90;999.90;;;20.30;99.90;;;;;;5094881;28;20437;-68
2023/06/29 01:37:19;;;;;;;1999.90;999.90;;;20.30;99.90;;;;;;5094427;28;20473;-68
2023/06/29 01:39:53;;;;;;;1999.90;999.90;;;20.30;99.90;;;;;;5094630;28;20400;-69
2023/06/29 01:42:20;;;;;;;1999.90;999.90;;;20.30;99.90;;;;;;5094310;28;20405;-69
2023/06/29 01:44:50;;;;;;;1999.90;999.90;;;20.30;99.90;;;;;;5094563;28;20533;-69
2023/06/29 01:47:18;;;;;;;1999.90;999.90;;;20.30;99.90;;;;;;5095146;28;20405;-68
2023/06/29 01:49:44;;;;;;;1999.90;999.90;;;20.30;99.90;;;;;;5095140;28;20424;-69
2023/06/29 01:52:10;;;;;;;1999.90;999.90;;;20.40;99.90;;;;;;5094673;28;20810;-69
2023/06/29 01:54:35;;;;;;;1999.90;999.90;;;20.30;99.90;;;;;;5094657;28;20417;-68
2023/06/29 01:57:05;;;;;;;1999.90;999.90;;;20.30;99.90;;;;;;5094827;28;20203;-68
2023/06/29 01:59:30;;;;;;;1999.90;999.90;;;20.30;99.90;;;;;;5094707;28;20173;-68
2023/06/29 02:01:56;;;;;;;1999.90;999.90;;;20.30;99.90;;;;;;5094519;28;20415;-68
2023/06/29 02:04:21;;;;;;;1999.90;999.90;;;20.30;99.90;;;;;;5094668;28;20203;-69
2023/06/29 02:06:47;;;;;;;1999.90;999.90;;;20.40;99.90;;;;;;5094691;28;20196;-68
2023/06/29 02:09:13;;;;;;;1999.90;999.90;;;20.40;99.90;;;;;;5094685;28;20677;-68
2023/06/29 02:11:38;;;;;;;1999.90;999.90;;;20.40;99.90;;;;;;5094642;28;20575;-68
2023/06/29 02:14:04;;;;;;;1999.90;999.90;;;20.30;99.90;;;;;;5094893;28;20407;-68
2023/06/29 02:16:30;;;;;;;1999.90;999.90;;;20.20;99.90;;;;;;5093983;28;20716;-69
2023/06/29 02:18:55;;;;;;;1999.90;999.90;;;20.20;99.90;;;;;;5093961;28;20169;-68
2023/06/29 02:21:21;;;;;;;1999.90;999.90;;;20.20;99.90;;;;;;5093407;28;20172;-69
2023/06/29 02:23:47;;;;;;;1999.90;999.90;;;20.20;99.90;;;;;;5093964;28;20190;-69
2023/06/29 02:26:12;;;;;;;1999.90;999.90;;;20.10;99.90;;;;;;5093709;28;20190;-68
2023/06/29 02:28:38;;;;;;;1999.90;999.90;;;20.10;99.90;;;;;;5093781;28;20171;-69
2023/06/29 02:31:03;;;;;;;1999.90;999.90;;;20.10;99.90;;;;;;5093372;28;20339;-69
2023/06/29 02:33:29;;;;;;;1999.90;999.90;;;20.10;99.90;;;;;;5093534;28;20184;-68
2023/06/29 02:35:55;;;;;;;1999.90;999.90;;;20.10;99.90;;;;;;5092866;28;20268;-68
2023/06/29 02:38:20;;;;;;;1999.90;999.90;;;20.10;99.90;;;;;;5093453;28;20573;-69
2023/06/29 02:40:46;;;;;;;1999.90;999.90;;;20.10;99.90;;;;;;5093505;28;20259;-69
2023/06/29 02:43:11;;;;;;;1999.90;999.90;;;20.10;99.90;;;;;;5093259;28;20179;-69
2023/06/29 02:45:37;;;;;;;1999.90;999.90;;;20.00;99.90;;;;;;5093372;28;20235;-68
2023/06/29 02:48:03;;;;;;;1999.90;999.90;;;19.90;99.90;;;;;;5093386;28;20200;-69
2023/06/29 02:50:28;;;;;;;1999.90;999.90;;;19.80;99.90;;;;;;5093051;28;20168;-69
2023/06/29 02:52:54;;;;;;;1999.90;999.90;;;19.80;99.90;;;;;;5092913;28;20222;-68
2023/06/29 02:55:22;;;;;;;1999.90;999.90;;;19.80;99.90;;;;;;5093239;28;20188;-69
2023/06/29 02:57:47;;;;;;;1999.90;999.90;;;19.80;99.90;;;;;;5093206;28;20692;-68
2023/06/29 03:00:13;;;;;;;1999.90;999.90;;;19.70;99.90;;;;;;5093043;28;20441;-69
2023/06/29 03:02:39;;;;;;;1999.90;999.90;;;19.80;99.90;;;;;;5092784;28;20191;-69
2023/06/29 03:05:08;;;;;;;1999.90;999.90;;;19.80;99.90;;;;;;5093326;28;20433;-68
2023/06/29 03:07:34;;;;;;;1999.90;999.90;;;19.70;99.90;;;;;;5093527;28;20165;-68
2023/06/29 03:09:59;;;;;;;1999.90;999.90;;;19.60;99.90;;;;;;5093675;28;20446;-69
2023/06/29 03:12:25;;;;;;;1999.90;999.90;;;19.60;99.90;;;;;;5093258;28;20440;-68
2023/06/29 03:14:51;;;;;;;1999.90;999.90;;;19.50;99.90;;;;;;5093480;28;20166;-68
2023/06/29 03:17:16;;;;;;;1999.90;999.90;;;19.50;99.90;;;;;;5093443;28;20492;-68
2023/06/29 03:19:42;;;;;;;1999.90;999.90;;;19.50;99.90;;;;;;5093369;28;20167;-68
2023/06/29 03:22:08;;;;;;;1999.90;999.90;;;19.50;99.90;;;;;;5092899;28;20200;-68
2023/06/29 03:24:33;;;;;;;1999.90;999.90;;;19.50;99.90;;;;;;5093052;28;20175;-69
2023/06/29 03:26:59;;;;;;;1999.90;999.90;;;19.50;99.90;;;;;;5092790;28;20198;-68
2023/06/29 03:29:25;;;;;;;1999.90;999.90;;;19.60;99.90;;;;;;5093146;28;20210;-68
2023/06/29 03:31:51;;;;;;;1999.90;999.90;;;19.50;99.90;;;;;;5092725;28;20200;-68
2023/06/29 03:34:16;;;;;;;1999.90;999.90;;;19.60;99.90;;;;;;5092950;28;20744;-68
2023/06/29 03:36:42;;;;;;;1999.90;999.90;;;19.60;99.90;;;;;;5092538;28;20189;-69
2023/06/29 03:39:07;;;;;;;1999.90;999.90;;;19.70;99.90;;;;;;5092612;28;20166;-69
2023/06/29 03:41:33;;;;;;;1999.90;999.90;;;19.70;99.90;;;;;;5092082;28;20543;-69
2023/06/29 03:43:59;;;;;;;1999.90;999.90;;;19.80;99.90;;;;;;5092354;28;20655;-69
2023/06/29 03:46:24;;;;;;;1999.90;999.90;;;19.70;99.90;;;;;;5092238;28;20230;-69
2023/06/29 03:48:50;;;;;;;1999.90;999.90;;;19.80;99.90;;;;;;5092324;28;20174;-69
2023/06/29 03:51:15;;;;;;;1999.90;999.90;;;19.90;99.90;;;;;;5091932;28;20709;-69
2023/06/29 03:53:41;;;;;;;1999.90;999.90;;;19.90;99.90;;;;;;5092331;28;20636;-69
2023/06/29 03:56:07;;;;;;;1999.90;999.90;;;19.90;99.90;;;;;;5092198;28;20279;-67
2023/06/29 03:58:32;;;;;;;1999.90;999.90;;;19.80;99.90;;;;;;5092169;28;20163;-69
2023/06/29 04:00:58;;;;;;;1999.90;999.90;;;19.70;99.90;;;;;;5092165;28;20541;-68
2023/06/29 04:03:24;;;;;;;1999.90;999.90;;;19.70;99.90;;;;;;5092299;28;20267;-69
2023/06/29 04:05:50;;;;;;;1999.90;999.90;;;19.70;99.90;;;;;;5092224;28;20273;-69
2023/06/29 04:08:15;;;;;;;1999.90;999.90;;;19.80;99.90;;;;;;5092157;28;20895;-69
2023/06/29 04:10:41;;;;;;;1999.90;999.90;;;19.80;99.90;;;;;;5091933;28;20186;-69
2023/06/29 04:13:07;;;;;;;1999.90;999.90;;;19.80;99.90;;;;;;5091797;28;20578;-69
2023/06/29 04:15:32;;;;;;;1999.90;999.90;;;19.70;99.90;;;;;;5091869;28;20328;-68
2023/06/29 04:17:58;;;;;;;1999.90;999.90;;;19.70;99.90;;;;;;5091939;28;20304;-69
2023/06/29 04:20:24;;;;;;;1999.90;999.90;;;19.70;99.90;;;;;;5091952;28;20166;-68
2023/06/29 04:22:49;;;;;;;1999.90;999.90;;;19.70;99.90;;;;;;5091660;28;20580;-68
2023/06/29 04:25:15;;;;;;;1999.90;999.90;;;19.80;99.90;;;;;;5091885;28;20247;-69
2023/06/29 04:27:42;;;;;;;1999.90;999.90;;;19.90;99.90;;;;;;5091932;28;20642;-69
2023/06/29 04:30:08;;;;;;;1999.90;999.90;;;19.90;99.90;;;;;;5091924;28;20750;-69
2023/06/29 04:32:34;;;;;;;1999.90;999.90;;;19.90;99.90;;;;;;5091707;28;20476;-68
2023/06/29 04:35:01;;;;;;;1999.90;999.90;;;19.90;99.90;;;;;;5091871;28;20409;-69
2023/06/29 04:37:35;;;;;;;1999.90;999.90;;;19.90;99.90;;;;;;5091815;28;20414;-69
2023/06/29 04:40:01;;;;;;;1999.90;999.90;;;20.00;99.90;;;;;;5091917;28;20409;-69
2023/06/29 04:42:30;;;;;;;1999.90;999.90;;;20.00;99.90;;;;;;5091504;28;20435;-69
2023/06/29 04:44:55;;;;;;;1999.90;999.90;;;20.10;99.90;;;;;;5091894;28;20180;-69
2023/06/29 04:47:21;;;;;;;1999.90;999.90;;;20.10;99.90;;;;;;5091758;28;20487;-69
2023/06/29 04:49:52;;;;;;;1999.90;999.90;;;20.20;99.90;;;;;;5091848;28;20205;-69
2023/06/29 04:52:18;;;;;;;1999.90;999.90;;;20.30;99.90;;;;;;5091301;28;20243;-69
2023/06/29 04:54:44;;;;;;;1999.90;999.90;;;20.30;99.90;;;;;;5091667;28;20442;-69
2023/06/29 04:57:12;;;;;;;1999.90;999.90;;;20.40;99.90;;;;;;5091551;28;20401;-69
2023/06/29 04:59:38;;;;;;;1999.90;999.90;;;20.40;99.90;;;;;;5094361;28;20411;-69
2023/06/29 05:02:04;;;;;;;1999.90;999.90;;;20.50;99.90;;;;;;5095205;28;20412;-69
2023/06/29 05:04:30;;;;;;;1999.90;999.90;;;20.50;99.90;;;;;;5095298;28;20762;-68
2023/06/29 05:06:55;;;;;;;1999.90;999.90;;;20.60;99.90;;;;;;5095282;28;20438;-69
2023/06/29 05:09:21;;;;;;;1999.90;999.90;;;20.70;99.90;;;;;;5095315;28;20211;-69
2023/06/29 05:11:47;;;;;;;1999.90;999.90;;;20.70;99.90;;;;;;5094791;28;20199;-69
2023/06/29 05:14:12;;;;;;;1999.90;999.90;;;20.70;99.90;;;;;;5095192;28;20532;-69
2023/06/29 05:16:38;;;;;;;1999.90;999.90;;;20.70;99.90;;;;;;5095200;28;20196;-69
2023/06/29 05:19:04;;;;;;;1999.90;999.90;;;20.60;99.90;;;;;;5095114;28;20175;-69
2023/06/29 05:21:30;;;;;;;1999.90;999.90;;;20.60;99.90;;;;;;5094581;28;20191;-69
2023/06/29 05:23:56;;;;;;;1999.90;999.90;;;20.70;99.90;;;;;;5095051;28;20406;-69
2023/06/29 05:26:21;;;;;;;1999.90;999.90;;;20.70;99.90;;;;;;5093577;28;20451;-69
2023/06/29 05:28:47;;;;;;;1999.90;999.90;;;20.70;99.90;;;;;;5094908;28;20169;-69
2023/06/29 05:31:13;;;;;;;1999.90;999.90;;;20.60;99.90;;;;;;5094532;28;20208;-69
2023/06/29 05:33:38;;;;;;;1999.90;999.90;;;20.70;99.90;;;;;;5094757;28;20167;-69
2023/06/29 05:36:04;;;;;;;1999.90;999.90;;;20.80;99.90;;;;;;5095273;28;20191;-68
2023/06/29 05:38:29;;;;;;;1999.90;999.90;;;20.90;99.90;;;;;;5095480;28;20615;-69
2023/06/29 05:40:56;;;;;;;1999.90;999.90;;;21.00;99.90;;;;;;5095039;28;20267;-69
2023/06/29 05:43:24;;;;;;;1999.90;999.90;;;21.00;99.90;;;;;;5095221;28;20631;-69
2023/06/29 05:45:49;;;;;;;1999.90;999.90;;;21.00;99.90;;;;;;5095006;28;20402;-69
2023/06/29 05:48:15;;;;;;;1999.90;999.90;;;21.00;99.90;;;;;;5094895;28;20409;-69
2023/06/29 05:50:40;;;;;;;1999.90;999.90;;;21.10;99.90;;;;;;5095229;28;20173;-68
2023/06/29 05:53:06;;;;;;;1999.90;999.90;;;21.10;99.90;;;;;;5094826;28;20213;-69
2023/06/29 05:55:32;;;;;;;1999.90;999.90;;;21.10;99.90;;;;;;5094860;28;20718;-68
2023/06/29 05:57:57;;;;;;;1999.90;999.90;;;21.10;99.90;;;;;;5095311;28;20218;-69
2023/06/29 06:00:23;;;;;;;1999.90;999.90;;;21.20;99.90;;;;;;5094955;28;20177;-69
2023/06/29 06:02:48;;;;;;;1999.90;999.90;;;21.40;99.90;;;;;;5093866;28;20175;-69
2023/06/29 06:05:14;;;;;;;1999.90;999.90;;;21.50;99.90;;;;;;5094259;28;20188;-70
2023/06/29 06:07:40;;;;;;;1999.90;999.90;;;21.70;99.90;;;;;;5094222;28;20253;-69
2023/06/29 06:10:06;;;;;;;1999.90;999.90;;;21.80;99.90;;;;;;5093003;28;20177;-69
2023/06/29 06:12:32;;;;;;;1999.90;999.90;;;21.90;99.90;;;;;;5093755;28;20247;-69
2023/06/29 06:14:57;;;;;;;1999.90;999.90;;;22.10;99.90;;;;;;5093951;28;20403;-69
2023/06/29 06:17:24;;;;;;;1999.90;999.90;;;22.20;99.90;;;;;;5093987;28;20215;-69
2023/06/29 06:19:49;;;;;;;1999.90;999.90;;;22.30;99.90;;;;;;5093890;28;20218;-69
2023/06/29 06:22:15;;;;;;;1999.90;999.90;;;22.40;99.90;;;;;;5093397;28;20439;-69
2023/06/29 06:24:40;;;;;;;1999.90;999.90;;;22.50;99.90;;;;;;5093794;28;20269;-69
2023/06/29 06:27:07;;;;;;;1999.90;999.90;;;22.60;99.90;;;;;;5093908;28;20855;-69
2023/06/29 06:29:33;;;;;;;1999.90;999.90;;;22.60;99.90;;;;;;5093901;28;20178;-69
2023/06/29 06:31:58;;;;;;;1999.90;999.90;;;22.70;99.90;;;;;;5093339;28;20499;-69
2023/06/29 06:34:24;;;;;;;1999.90;999.90;;;22.80;99.90;;;;;;5093722;28;20408;-69
2023/06/29 06:36:51;;;;;;;1999.90;999.90;;;22.80;99.90;;;;;;5093544;28;20745;-69
2023/06/29 06:39:18;;;;;;;1999.90;999.90;;;23.00;99.90;;;;;;5093442;28;20401;-70
2023/06/29 06:41:43;;;;;;;1999.90;999.90;;;23.10;99.90;;;;;;5093324;28;20383;-69
2023/06/29 06:44:09;;;;;;;1999.90;999.90;;;23.10;99.90;;;;;;5093503;28;20440;-69
2023/06/29 06:46:35;;;;;;;1999.90;999.90;;;23.20;99.90;;;;;;5093590;28;20217;-69
2023/06/29 06:49:00;;;;;;;1999.90;999.90;;;23.20;99.90;;;;;;5093446;28;20175;-69
2023/06/29 06:51:27;;;;;;;1999.90;999.90;;;23.40;99.90;;;;;;5092773;28;20583;-70
2023/06/29 06:53:53;;;;;;;1999.90;999.90;;;23.40;99.90;;;;;;5093178;28;20185;-69
2023/06/29 06:56:19;;;;;;;1999.90;999.90;;;23.40;99.90;;;;;;5093156;28;20809;-69
2023/06/29 06:58:45;;;;;;;1999.90;999.90;;;23.40;99.90;;;;;;5093147;28;20401;-69
2023/06/29 07:01:11;;;;;;;1999.90;999.90;;;23.50;99.90;;;;;;5092912;28;20178;-69
2023/06/29 07:03:36;;;;;;;1999.90;999.90;;;23.60;99.90;;;;;;5093052;28;20217;-69
2023/06/29 07:06:02;;;;;;;1999.90;999.90;;;23.70;99.90;;;;;;5092897;28;20456;-69
2023/06/29 07:08:28;;;;;;;1999.90;999.90;;;23.80;99.90;;;;;;5092973;28;20170;-70
2023/06/29 07:10:53;;;;;;;1999.90;999.90;;;23.80;99.90;;;;;;5092612;28;20204;-69
2023/06/29 07:13:19;;;;;;;1999.90;999.90;;;23.70;99.90;;;;;;5092900;28;20241;-70
2023/06/29 07:15:47;;;;;;;1999.90;999.90;;;23.70;99.90;;;;;;5092788;28;20194;-70
2023/06/29 07:18:13;;;;;;;1999.90;999.90;;;23.70;99.90;;;;;;5092765;28;20173;-69
2023/06/29 07:20:39;;;;;;;1999.90;999.90;;;23.70;99.90;;;;;;5092516;28;20409;-69
2023/06/29 07:23:04;;;;;;;1999.90;999.90;;;23.60;99.90;;;;;;5092136;28;20182;-70
2023/06/29 07:25:30;;;;;;;1999.90;999.90;;;23.60;99.90;;;;;;5092666;28;20563;-69
2023/06/29 07:27:56;;;;;;;1999.90;999.90;;;23.60;99.90;;;;;;5092755;28;20249;-69
2023/06/29 07:30:22;;;;;;;1999.90;999.90;;;23.60;99.90;;;;;;5092700;28;20371;-69
2023/06/29 07:32:47;;;;;;;1999.90;999.90;;;23.70;99.90;;;;;;5092121;28;20217;-69
2023/06/29 07:35:13;;;;;;;1999.90;999.90;;;23.80;99.90;;;;;;5092458;28;20269;-70
2023/06/29 07:37:39;;;;;;;1999.90;999.90;;;23.90;99.90;;;;;;5092374;28;20692;-70
2023/06/29 07:40:05;;;;;;;1999.90;999.90;;;24.00;99.90;;;;;;5092494;28;20177;-70
2023/06/29 07:42:31;;;;;;;1999.90;999.90;;;24.10;99.90;;;;;;5092047;28;20186;-70
2023/06/29 07:44:56;;;;;;;1999.90;999.90;;;24.20;99.90;;;;;;5092281;28;20383;-69
2023/06/29 07:47:22;;;;;;;1999.90;999.90;;;24.40;99.90;;;;;;5092281;28;20191;-70
2023/06/29 07:49:48;;;;;;;1999.90;999.90;;;24.60;99.90;;;;;;5092407;28;20189;-69
2023/06/29 07:52:14;;;;;;;1999.90;999.90;;;24.60;99.90;;;;;;5091897;28;20458;-69
2023/06/29 07:54:40;;;;;;;1999.90;999.90;;;24.80;99.90;;;;;;5092287;28;20162;-69
2023/06/29 07:57:05;;;;;;;1999.90;999.90;;;24.80;99.90;;;;;;5092149;28;20428;-69
2023/06/29 07:59:31;;;;;;;1999.90;999.90;;;24.90;99.90;;;;;;5092190;28;20175;-70
2023/06/29 08:01:57;;;;;;;1999.90;999.90;;;24.90;99.90;;;;;;5091844;28;20173;-69
2023/06/29 08:04:22;;;;;;;1999.90;999.90;;;25.00;99.90;;;;;;5092139;28;20675;-70
2023/06/29 08:06:48;;;;;;;1999.90;999.90;;;25.10;99.90;;;;;;5091983;28;20201;-70
2023/06/29 08:09:14;;;;;;;1999.90;999.90;;;25.20;99.90;;;;;;5092127;28;20174;-70
2023/06/29 08:11:40;;;;;;;1999.90;999.90;;;25.30;99.90;;;;;;5091696;28;20241;-69
2023/06/29 08:14:06;;;;;;;1999.90;999.90;;;25.40;99.90;;;;;;5091940;28;20440;-69
2023/06/29 08:16:32;;;;;;;1999.90;999.90;;;25.40;99.90;;;;;;5092029;28;20190;-70
2023/06/29 08:18:58;;;;;;;1999.90;999.90;;;25.40;99.90;;;;;;5092042;28;20396;-69
2023/06/29 08:21:24;;;;;;;1999.90;999.90;;;25.40;99.90;;;;;;5091869;28;20671;-70
2023/06/29 08:23:50;;;;;;;1999.90;999.90;;;25.40;99.90;;;;;;5092013;28;20411;-69
2023/06/29 08:26:16;;;;;;;1999.90;999.90;;;25.40;99.90;;;;;;5091927;28;20564;-69
2023/06/29 08:28:42;;;;;;;1999.90;999.90;;;25.40;99.90;;;;;;5091944;28;20518;-70
2023/06/29 08:31:08;;;;;;;1999.90;999.90;;;25.60;99.90;;;;;;5091484;28;20898;-69
2023/06/29 08:33:33;;;;;;;1999.90;999.90;;;25.70;99.90;;;;;;5092853;28;20173;-69
2023/06/29 08:35:59;;;;;;;1999.90;999.90;;;25.90;99.90;;;;;;5095925;28;20179;-69
2023/06/29 08:38:25;;;;;;;1999.90;999.90;;;26.20;99.90;;;;;;5095927;28;20162;-69
2023/06/29 08:40:51;;;;;;;1999.90;999.90;;;26.20;99.90;;;;;;5095795;28;20638;-69
2023/06/29 08:43:18;;;;;;;1999.90;999.90;;;26.40;99.90;;;;;;5095583;28;20185;-69
2023/06/29 08:45:45;;;;;;;1999.90;999.90;;;26.30;99.90;;;;;;5095503;28;20391;-69
2023/06/29 08:48:13;;;;;;;1999.90;999.90;;;26.20;99.90;;;;;;5095620;28;20405;-70
2023/06/29 08:50:44;;;;;;;1999.90;999.90;;;26.40;99.90;;;;;;5095764;28;20785;-70
2023/06/29 08:53:10;;;;;;;1999.90;999.90;;;26.50;99.90;;;;;;5095303;28;20404;-69
2023/06/29 08:55:36;;;;;;;1999.90;999.90;;;26.80;99.90;;;;;;5095454;28;20969;-70
2023/06/29 08:58:03;;;;;;;1999.90;999.90;;;26.70;99.90;;;;;;5095758;28;20886;-70
2023/06/29 09:00:29;;;;;;;1999.90;999.90;;;26.50;99.90;;;;;;5095397;28;20471;-70
2023/06/29 09:02:55;;;;;;;1999.90;999.90;;;26.60;99.90;;;;;;5095043;28;20473;-70
2023/06/29 09:05:21;;;;;;;1999.90;999.90;;;26.80;99.90;;;;;;5095743;28;20190;-69
2023/06/29 09:07:47;;;;;;;1999.90;999.90;;;26.80;99.90;;;;;;5095380;28;20400;-70
2023/06/29 09:10:13;;;;;;;1999.90;999.90;;;26.70;99.90;;;;;;5095300;28;20942;-70
2023/06/29 09:12:38;;;;;;;1999.90;999.90;;;26.80;99.90;;;;;;5093670;28;20202;-69
2023/06/29 09:15:12;;;;;;;1999.90;999.90;;;26.80;99.90;;;;;;5095085;28;20174;-69
2023/06/29 09:17:44;;;;;;;1999.90;999.90;;;26.80;99.90;;;;;;5095151;28;20314;-70
2023/06/29 09:20:15;;;;;;;1999.90;999.90;;;27.00;99.90;;;;;;5095264;28;20394;-70
2023/06/29 09:22:41;;;;;;;1999.90;999.90;;;27.00;99.90;;;;;;5094774;28;20424;-70
2023/06/29 09:25:09;;;;;;;1999.90;999.90;;;26.80;99.90;;;;;;5094889;28;21051;-69
2023/06/29 09:27:35;;;;;;;1999.90;999.90;;;26.60;99.90;;;;;;5095027;28;20423;-70
2023/06/29 09:30:03;;;;;;;1999.90;999.90;;;26.20;99.90;;;;;;5094847;28;20404;-70
2023/06/29 09:32:29;;;;;;;1999.90;999.90;;;26.20;99.90;;;;;;5094499;28;20198;-69
2023/06/29 09:35:03;;;;;;;1999.90;999.90;;;26.30;99.90;;;;;;5095055;28;20424;-69
2023/06/29 09:37:29;;;;;;;1999.90;999.90;;;26.30;99.90;;;;;;5095168;28;20483;-69
2023/06/29 09:40:08;;;;;;;1999.90;999.90;;;26.20;99.90;;;;;;5094911;28;20819;-69
2023/06/29 09:42:37;;;;;;;1999.90;999.90;;;26.30;99.90;;;;;;5094488;28;20209;-69
2023/06/29 09:45:07;;;;;;;1999.90;999.90;;;26.40;99.90;;;;;;5094343;28;20406;-69
2023/06/29 09:47:33;;;;;;;1999.90;999.90;;;26.40;99.90;;;;;;5094651;28;20420;-69
2023/06/29 09:49:59;;;;;;;1999.90;999.90;;;26.30;99.90;;;;;;5094640;28;20499;-69
2023/06/29 09:52:25;;;;;;;1999.90;999.90;;;26.50;99.90;;;;;;5087239;28;20543;-66
2023/06/29 09:54:55;;;;;;;1999.90;999.90;;;26.60;99.90;;;;;;5088939;28;20178;-68
2023/06/29 09:57:22;;;;;;;1999.90;999.90;;;26.50;99.90;;;;;;5089239;28;20178;-68
2023/06/29 09:59:49;;;;;;;1999.90;999.90;;;25.90;99.90;;;;;;5087903;28;20409;-67
2023/06/29 10:02:15;;;;;;;1999.90;999.90;;;26.10;99.90;;;;;;5089935;28;21113;-67
2023/06/29 10:04:41;;;;;;;1999.90;999.90;;;26.20;99.90;;;;;;5089306;28;20444;-67
2023/06/29 10:07:14;;;;;;;1999.90;999.90;;;26.40;99.90;;;;;;5089779;28;20428;-67
2023/06/29 10:09:42;;;;;;;1999.90;999.90;;;26.50;99.90;;;;;;5090289;28;20420;-68
2023/06/29 10:12:10;;;;;;;1999.90;999.90;;;26.80;99.90;;;;;;5088949;28;20484;-67
2023/06/29 10:14:42;;;;;;;1999.90;999.90;;;27.00;99.90;;;;;;5088741;28;20784;-67
2023/06/29 10:17:11;;;;;;;1999.90;999.90;;;27.20;99.90;;;;;;5089383;28;20409;-67
2023/06/29 10:19:40;;;;;;;1999.90;999.90;;;27.40;99.90;;;;;;5089770;28;20416;-67
2023/06/29 10:22:09;;;;;;;1999.90;999.90;;;27.30;99.90;;;;;;5088363;28;20414;-67
2023/06/29 10:24:41;;;;;;;1999.90;999.90;;;27.20;99.90;;;;;;5088889;28;20427;-68
2023/06/29 10:27:09;;;;;;;1999.90;999.90;;;27.30;99.90;;;;;;5088982;28;20431;-67
2023/06/29 10:29:55;;;;;;;1999.90;999.90;;;27.40;99.90;;;;;;5089579;28;20503;-67
2023/06/29 10:32:38;;;;;;;1999.90;999.90;;;27.40;99.90;;;;;;5088556;28;20456;-67
2023/06/29 10:35:11;;;;;;;1999.90;999.90;;;27.30;99.90;;;;;;5066716;28;20435;-67
2023/06/29 10:37:40;;;;;;;1999.90;999.90;;;27.10;99.90;;;;;;5067496;28;20425;-67
2023/06/29 10:40:20;;;;;;;1999.90;999.90;;;27.00;99.90;;;;;;5068326;28;20482;-67
2023/06/29 10:42:45;;;;;;;1999.90;999.90;;;27.00;99.90;;;;;;5068019;28;20455;-67
2023/06/29 10:45:23;;;;;;;1999.90;999.90;;;27.10;99.90;;;;;;5068598;28;20436;-69
2023/06/29 10:47:57;;;;;;;1999.90;999.90;;;27.20;99.90;;;;;;5068819;28;20565;-68
2023/06/29 10:50:27;;;;;;;1999.90;999.90;;;27.20;99.90;;;;;;5068116;28;20950;-68
2023/06/29 10:52:58;;;;;;;1999.90;999.90;;;27.20;99.90;;;;;;5068196;28;20495;-68
2023/06/29 10:55:26;;;;;;;1999.90;999.90;;;27.10;99.90;;;;;;5068611;28;20781;-68
2023/06/29 10:57:54;;;;;;;1999.90;999.90;;;27.20;99.90;;;;;;5068597;28;20424;-68
2023/06/29 11:00:21;;;;;;;1999.90;999.90;;;27.20;99.90;;;;;;5069050;28;20500;-68
2023/06/29 11:02:48;;;;;;;1999.90;999.90;;;27.10;99.90;;;;;;5068403;28;20405;-68
2023/06/29 11:05:17;;;;;;;1999.90;999.90;;;27.30;99.90;;;;;;5068359;28;20428;-68
2023/06/29 11:07:44;;;;;;;1999.90;999.90;;;27.40;99.60;;;;;;5068767;28;20797;-68
2023/06/29 11:10:11;;;;;;;1999.90;999.90;;;27.60;99.30;;;;;;5068390;28;20760;-68
2023/06/29 11:12:37;;;;;;;1999.90;999.90;;;27.80;99.90;;;;;;5068432;28;20906;-68
2023/06/29 11:15:12;;;;;;;1999.90;999.90;;;27.80;98.00;;;;;;5068540;28;20392;-68
2023/06/29 11:17:39;;;;;;;1999.90;999.90;;;27.80;97.50;;;;;;5068385;28;20408;-68
2023/06/29 11:20:06;;;;;;;1999.90;999.90;;;27.90;98.60;;;;;;5067618;28;20380;-68
2023/06/29 11:22:36;;;;;;;1999.90;999.90;;;28.00;99.40;;;;;;5068493;28;20436;-68
2023/06/29 11:25:02;;;;;;;1999.90;999.90;;;28.20;97.20;;;;;;5068093;28;20439;-68
2023/06/29 11:27:28;;;;;;;1999.90;999.90;;;28.20;97.10;;;;;;5067850;28;20414;-68
2023/06/29 11:29:55;;;;;;;1999.90;999.90;;;28.00;98.60;;;;;;5068989;28;20257;-68
2023/06/29 11:32:23;;;;;;;1999.90;999.90;;;28.00;97.70;;;;;;5068070;28;20186;-68
2023/06/29 11:34:59;;;;;;;1999.90;999.90;;;28.00;97.70;;;;;;5067425;28;20417;-68
2023/06/29 11:37:26;;;;;;;1999.90;999.90;;;28.00;97.20;;;;;;5068161;28;20859;-68
2023/06/29 11:39:51;;;;;;;1999.90;999.90;;;27.20;99.90;;;;;;5068660;28;20491;-68
2023/06/29 11:42:21;;;;;;;1999.90;999.90;;;26.60;99.90;;;;;;5067698;28;20410;-68
2023/06/29 11:45:04;;;;;;;1999.90;999.90;;;26.10;99.90;;;;;;5067812;28;20189;-68
2023/06/29 11:47:30;;;;;;;1999.90;999.90;;;25.80;99.90;;;;;;5067961;28;20883;-68
2023/06/29 11:49:59;;;;;;;1999.90;999.90;;;25.80;99.90;;;;;;5067565;28;20529;-68
2023/06/29 11:52:32;;;;;;;1999.90;999.90;;;25.80;99.90;;;;;;5068166;28;20584;-68
2023/06/29 11:55:02;;;;;;;1999.90;999.90;;;25.60;99.90;;;;;;5068340;28;20929;-67
2023/06/29 11:57:32;;;;;;;1999.90;999.90;;;25.50;99.90;;;;;;5067550;28;20756;-68